Terminal Aerodrome Forecast
Issued by NWS Twin Cities, MN

Home | Current Version | Previous Version | Text Only | Print | Product List | Glossary Off
Versions: 1 2 3 4 5 6 7 8 9 10 11 12 13 14 15 16 17 18 19 20

551
FTUS43 KMPX 162339
TAFSTC
TAF
KSTC 162339Z 1700/1724 14012G19KT P6SM BKN018 OVC070
      TEMPO 1704/1708 SCT018 BKN070
     FM171100 15012KT P6SM OVC015
     FM171400 17009KT 5SM -DZ BR OVC010
     FM172100 33007KT P6SM OVC015=

USA.gov is the U.S. government's official web portal to all federal, state and local government web resources and services.